createdAt,value
2023-02-13T00:00:22.292Z,15.45
2023-02-13T00:02:49.268Z,14.10
2023-02-13T00:05:16.133Z,15.70
2023-02-13T00:07:42.887Z,16.10
2023-02-13T00:10:10.229Z,15.55
2023-02-13T00:12:37.135Z,15.95
2023-02-13T00:15:04.825Z,15.48
2023-02-13T00:17:33.141Z,16.40
2023-02-13T00:20:00.015Z,16.45
2023-02-13T00:22:26.921Z,15.88
2023-02-13T00:24:53.686Z,16.30
2023-02-13T00:27:20.583Z,16.90
2023-02-13T00:29:47.337Z,17.55
2023-02-13T00:32:15.234Z,15.82
2023-02-13T00:34:43.928Z,17.58
2023-02-13T00:37:10.742Z,16.83
2023-02-13T00:39:37.453Z,16.75
2023-02-13T00:42:04.771Z,17.17
2023-02-13T00:44:31.508Z,17.55
2023-02-13T00:46:58.181Z,16.70
2023-02-13T00:49:25.150Z,17.73
2023-02-13T00:51:51.853Z,18.50
2023-02-13T00:54:18.662Z,17.25
2023-02-13T00:56:45.385Z,18.00
2023-02-13T00:59:12.156Z,18.10
2023-02-13T01:01:38.925Z,17.92
2023-02-13T01:04:05.730Z,17.63
2023-02-13T01:06:32.582Z,17.75
2023-02-13T01:08:59.251Z,18.25
2023-02-13T01:11:26.065Z,18.20
2023-02-13T01:13:52.763Z,17.60
2023-02-13T01:16:19.561Z,18.90
2023-02-13T01:18:46.353Z,18.08
2023-02-13T01:21:21.629Z,17.75
2023-02-13T01:23:48.442Z,18.65
2023-02-13T01:26:19.770Z,19.88
2023-02-13T01:28:46.689Z,18.52
2023-02-13T01:31:14.367Z,18.83
2023-02-13T01:33:41.327Z,19.20
2023-02-13T01:36:12.548Z,18.83
2023-02-13T01:38:39.354Z,18.83
2023-02-13T01:41:06.626Z,18.63
2023-02-13T01:44:02.878Z,18.67
2023-02-13T01:51:49.150Z,19.35
2023-02-13T01:54:30.968Z,19.30
2023-02-13T01:57:19.318Z,18.88
2023-02-13T02:00:14.929Z,19.25
2023-02-13T02:02:51.282Z,18.38
2023-02-13T02:05:21.647Z,17.42
2023-02-13T02:07:49.831Z,17.23
2023-02-13T02:10:19.626Z,17.23
2023-02-13T02:13:01.922Z,18.52
2023-02-13T02:15:29.178Z,18.38
2023-02-13T02:17:55.898Z,18.50
2023-02-13T02:20:22.580Z,18.55
2023-02-13T02:22:55.267Z,19.15
2023-02-13T02:26:09.394Z,18.20
2023-02-13T02:28:51.235Z,18.58
2023-02-13T02:31:55.933Z,18.27
2023-02-13T02:34:47.817Z,17.80
2023-02-13T02:37:17.501Z,18.35
2023-02-13T02:39:50.904Z,18.13
2023-02-13T02:42:42.276Z,18.80
2023-02-13T02:45:29.229Z,18.27
2023-02-13T02:48:39.453Z,17.20
2023-02-13T02:54:01.032Z,16.40
2023-02-13T02:56:40.303Z,16.05
2023-02-13T02:59:34.294Z,15.02
2023-02-13T03:02:20.932Z,14.43
2023-02-13T03:05:09.669Z,15.18
2023-02-13T03:07:36.385Z,14.57
2023-02-13T03:10:26.201Z,14.23
2023-02-13T03:13:21.702Z,14.73
2023-02-13T03:16:16.242Z,14.70
2023-02-13T03:19:05.530Z,13.85
2023-02-13T03:22:05.502Z,14.00
2023-02-13T03:24:47.000Z,12.30
2023-02-13T03:28:02.021Z,12.57
2023-02-13T03:30:44.093Z,12.32
2023-02-13T03:33:29.044Z,11.80
2023-02-13T03:36:58.827Z,11.68
2023-02-13T03:39:54.509Z,11.30
2023-02-13T03:42:50.531Z,11.95
2023-02-13T03:45:44.238Z,12.10
2023-02-13T03:48:32.221Z,12.43
2023-02-13T03:51:02.076Z,12.68
2023-02-13T03:53:31.480Z,12.82
2023-02-13T03:56:18.129Z,14.37
2023-02-13T03:59:11.155Z,13.48
2023-02-13T04:01:40.121Z,12.85
2023-02-13T04:04:28.814Z,13.18
2023-02-13T04:07:29.247Z,10.90
2023-02-13T04:10:00.118Z,11.63
2023-02-13T04:12:48.096Z,12.65
2023-02-13T04:15:25.391Z,11.27
2023-02-13T04:18:23.716Z,12.13
2023-02-13T04:20:50.638Z,12.20
2023-02-13T04:23:17.438Z,12.07
2023-02-13T04:25:48.661Z,11.38
2023-02-13T04:28:15.519Z,11.95
2023-02-13T04:30:42.441Z,12.52
2023-02-13T04:33:09.314Z,12.90
2023-02-13T04:35:36.078Z,13.15
2023-02-13T04:38:02.913Z,13.70
2023-02-13T04:40:29.666Z,13.50
2023-02-13T04:42:56.519Z,13.32
2023-02-13T04:45:23.254Z,14.55
2023-02-13T04:47:51.586Z,13.48
2023-02-13T04:50:18.782Z,13.23
2023-02-13T04:52:45.615Z,13.32
2023-02-13T04:55:12.725Z,14.35
2023-02-13T04:57:39.882Z,14.60
2023-02-13T05:00:07.924Z,14.15
2023-02-13T05:02:34.665Z,14.55
2023-02-13T05:05:01.352Z,14.35
2023-02-13T05:07:28.132Z,15.05
2023-02-13T05:09:54.822Z,14.85
2023-02-13T05:12:21.510Z,14.65
2023-02-13T05:14:48.400Z,13.80
2023-02-13T05:17:15.460Z,15.38
2023-02-13T05:19:42.185Z,15.10
2023-02-13T05:22:28.800Z,14.73
2023-02-13T05:24:55.565Z,14.80
2023-02-13T05:27:22.374Z,15.02
2023-02-13T05:29:49.546Z,15.23
2023-02-13T05:32:16.363Z,16.48
2023-02-13T05:34:43.155Z,15.77
2023-02-13T05:37:09.909Z,15.05
2023-02-13T05:39:36.624Z,16.77
2023-02-13T05:42:04.813Z,16.23
2023-02-13T05:44:32.332Z,15.85
2023-02-13T05:46:59.606Z,15.70
2023-02-13T05:49:26.331Z,16.42
2023-02-13T05:51:53.166Z,16.15
2023-02-13T05:54:19.981Z,15.43
2023-02-13T05:56:47.068Z,15.60
2023-02-13T05:59:14.198Z,16.42
2023-02-13T06:01:40.942Z,15.07
2023-02-13T06:04:07.693Z,17.00
2023-02-13T06:06:34.466Z,17.38
2023-02-13T06:09:01.193Z,16.10
2023-02-13T06:11:27.876Z,16.25
2023-02-13T06:13:54.571Z,16.73
2023-02-13T06:16:22.460Z,16.27
2023-02-13T06:18:49.282Z,17.02
2023-02-13T06:21:16.010Z,17.52
2023-02-13T06:23:42.988Z,17.23
2023-02-13T06:26:10.162Z,16.83
2023-02-13T06:28:36.924Z,17.02
2023-02-13T06:31:03.851Z,16.10
2023-02-13T06:33:30.667Z,16.90
2023-02-13T06:35:57.452Z,18.30
2023-02-13T06:38:24.388Z,17.40
2023-02-13T06:40:51.796Z,16.50
2023-02-13T06:43:18.925Z,17.52
2023-02-13T06:45:47.197Z,17.80
2023-02-13T06:48:14.804Z,16.38
2023-02-13T06:50:41.679Z,16.55
2023-02-13T06:53:08.487Z,15.98
2023-02-13T06:55:36.375Z,16.92
2023-02-13T06:58:03.155Z,18.20
2023-02-13T07:00:29.995Z,16.88
2023-02-13T07:03:03.073Z,17.65
2023-02-13T07:05:30.136Z,17.60
2023-02-13T07:07:57.185Z,16.73
2023-02-13T07:10:23.943Z,17.15
2023-02-13T07:13:03.700Z,17.30
2023-02-13T07:15:32.442Z,17.10
2023-02-13T07:18:00.553Z,17.45
2023-02-13T07:20:27.750Z,17.15
2023-02-13T07:23:01.581Z,18.23
2023-02-13T07:25:28.969Z,17.23
2023-02-13T07:27:55.910Z,17.92
2023-02-13T07:30:22.663Z,17.95
2023-02-13T07:32:49.516Z,19.10
2023-02-13T07:35:16.289Z,18.13
2023-02-13T07:37:42.977Z,18.35
2023-02-13T07:40:10.290Z,18.48
2023-02-13T07:42:36.985Z,18.60
2023-02-13T07:45:06.190Z,18.98
2023-02-13T07:47:34.110Z,19.55
2023-02-13T07:50:01.530Z,19.05
2023-02-13T07:52:28.228Z,19.20
2023-02-13T07:54:54.926Z,18.35
2023-02-13T07:57:21.857Z,19.02
2023-02-13T07:59:48.592Z,19.27
2023-02-13T08:02:16.104Z,19.52
2023-02-13T08:04:49.165Z,19.00
2023-02-13T08:07:17.732Z,19.40
2023-02-13T08:10:04.548Z,19.20
2023-02-13T08:12:32.949Z,18.67
2023-02-13T08:14:59.646Z,19.08
2023-02-13T08:17:26.387Z,19.48
2023-02-13T08:19:53.112Z,19.17
2023-02-13T08:22:19.846Z,19.23
2023-02-13T08:24:46.837Z,19.27
2023-02-13T08:27:14.867Z,19.65
2023-02-13T08:29:42.112Z,18.80
2023-02-13T08:32:09.191Z,18.80
2023-02-13T08:34:36.091Z,18.55
2023-02-13T08:37:03.668Z,18.67
2023-02-13T08:39:30.433Z,17.92
2023-02-13T08:41:57.206Z,19.10
2023-02-13T08:44:23.957Z,18.60
2023-02-13T08:46:50.726Z,18.52
2023-02-13T08:49:17.436Z,19.30
2023-02-13T08:51:44.251Z,18.38
2023-02-13T08:54:11.066Z,17.40
2023-02-13T08:56:37.833Z,18.63
2023-02-13T08:59:04.521Z,17.83
2023-02-13T09:01:31.353Z,17.98
2023-02-13T09:03:58.090Z,18.58
2023-02-13T09:06:26.440Z,17.75
2023-02-13T09:08:53.870Z,18.38
2023-02-13T09:11:23.288Z,17.20
2023-02-13T09:13:53.290Z,17.27
2023-02-13T09:16:20.564Z,18.17
2023-02-13T09:18:48.734Z,16.83
2023-02-13T09:21:15.965Z,17.67
2023-02-13T09:23:42.859Z,16.75
2023-02-13T09:26:15.208Z,18.00
2023-02-13T09:28:42.886Z,17.88
2023-02-13T09:31:20.691Z,17.65
2023-02-13T09:33:49.892Z,17.13
2023-02-13T09:36:20.694Z,17.73
2023-02-13T09:38:51.558Z,16.98
2023-02-13T09:41:25.549Z,17.73
2023-02-13T09:44:01.114Z,17.30
2023-02-13T09:46:39.998Z,17.00
2023-02-13T09:49:20.646Z,17.05
2023-02-13T09:51:54.318Z,17.17
2023-02-13T09:54:21.183Z,17.08
2023-02-13T09:57:17.804Z,16.98
2023-02-13T10:00:13.099Z,15.57
2023-02-13T10:02:58.079Z,15.43
2023-02-13T10:05:42.888Z,16.92
2023-02-13T10:08:30.525Z,15.82
2023-02-13T10:11:00.380Z,15.82
2023-02-13T10:13:53.140Z,16.67
2023-02-13T10:16:24.719Z,16.02
2023-02-13T10:19:29.101Z,16.42
2023-02-13T10:22:05.251Z,16.23
2023-02-13T10:24:35.936Z,16.45
2023-02-13T10:27:13.497Z,17.02
2023-02-13T10:30:14.192Z,16.05
2023-02-13T10:33:11.161Z,17.10
2023-02-13T10:35:39.431Z,17.60
2023-02-13T10:38:18.492Z,16.92
2023-02-13T10:40:58.088Z,16.52
2023-02-13T10:43:29.210Z,17.30
2023-02-13T10:46:44.832Z,16.77
2023-02-13T10:49:34.873Z,17.40
2023-02-13T10:52:30.199Z,16.95
2023-02-13T10:55:23.119Z,17.25
2023-02-13T10:58:01.978Z,18.27
2023-02-13T11:00:53.010Z,18.83
2023-02-13T11:03:29.037Z,18.95
2023-02-13T11:05:58.046Z,19.13
2023-02-13T11:08:40.611Z,19.60
2023-02-13T11:11:36.975Z,18.00
2023-02-13T11:14:17.374Z,19.45
2023-02-13T11:16:53.744Z,19.92
2023-02-13T11:19:32.566Z,19.60
2023-02-13T11:22:08.717Z,19.35
2023-02-13T11:24:36.638Z,19.75
2023-02-13T11:27:12.898Z,19.40
2023-02-13T11:29:58.394Z,19.67
2023-02-13T11:32:28.448Z,18.35
2023-02-13T11:34:56.091Z,19.48
2023-02-13T11:37:30.031Z,19.45
2023-02-13T11:39:59.319Z,19.25
2023-02-13T11:42:35.722Z,20.20
2023-02-13T11:45:20.372Z,19.00
2023-02-13T11:47:47.567Z,18.33
2023-02-13T11:50:31.676Z,19.30
2023-02-13T11:53:06.201Z,18.48
2023-02-13T11:55:38.319Z,18.65
2023-02-13T11:58:05.014Z,19.05
2023-02-13T12:00:42.348Z,18.75
2023-02-13T12:03:21.536Z,18.13
2023-02-13T12:06:00.440Z,18.83
2023-02-13T12:08:28.016Z,19.00
2023-02-13T12:10:57.531Z,18.88
2023-02-13T12:13:24.264Z,18.40
2023-02-13T12:16:00.236Z,18.80
2023-02-13T12:18:50.801Z,18.17
2023-02-13T12:21:32.761Z,17.73
2023-02-13T12:24:21.148Z,18.55
2023-02-13T12:27:00.482Z,19.52
2023-02-13T12:29:56.474Z,18.20
2023-02-13T12:32:46.041Z,17.85
2023-02-13T12:35:24.661Z,17.47
2023-02-13T12:37:57.437Z,18.30
2023-02-13T12:41:02.914Z,17.95
2023-02-13T12:43:49.859Z,18.88
2023-02-13T12:46:32.592Z,18.98
2023-02-13T12:49:22.282Z,17.80
2023-02-13T12:52:01.086Z,19.20
2023-02-13T12:55:09.702Z,18.30
2023-02-13T12:58:05.557Z,19.10
2023-02-13T13:00:35.146Z,19.75
2023-02-13T13:03:16.912Z,19.02
2023-02-13T13:06:08.920Z,18.02
2023-02-13T13:08:55.631Z,18.23
2023-02-13T13:11:47.477Z,18.30
2023-02-13T13:14:26.249Z,19.25
2023-02-13T13:16:58.959Z,18.45
2023-02-13T13:19:46.952Z,18.50
2023-02-13T13:22:21.002Z,17.27
2023-02-13T13:25:03.803Z,19.23
2023-02-13T13:27:34.663Z,19.73
2023-02-13T13:30:13.362Z,19.73
2023-02-13T13:32:41.743Z,18.90
2023-02-13T13:35:19.918Z,18.75
2023-02-13T13:38:17.396Z,17.98
2023-02-13T13:41:08.759Z,18.52
2023-02-13T13:43:56.581Z,17.15
2023-02-13T13:46:35.635Z,18.25
2023-02-13T13:49:17.443Z,18.67
2023-02-13T13:51:44.496Z,18.27
2023-02-13T13:54:11.313Z,18.95
2023-02-13T13:56:53.378Z,18.20
2023-02-13T13:59:38.252Z,17.70
2023-02-13T14:02:17.285Z,16.98
2023-02-13T14:05:10.488Z,17.45
2023-02-13T14:07:41.507Z,18.17
2023-02-13T14:10:34.891Z,17.70
2023-02-13T14:13:05.260Z,16.77
2023-02-13T14:18:20.961Z,16.08
2023-02-13T14:20:50.310Z,15.90
2023-02-13T14:23:53.637Z,16.67
2023-02-13T14:26:28.858Z,16.23
2023-02-13T14:29:10.200Z,16.13
2023-02-13T14:31:41.073Z,17.00
2023-02-13T14:34:18.206Z,15.38
2023-02-13T14:37:10.929Z,15.48
2023-02-13T14:39:42.001Z,16.02
2023-02-13T14:42:27.586Z,16.52
2023-02-13T14:44:59.810Z,15.60
2023-02-13T14:47:40.332Z,16.15
2023-02-13T14:50:14.376Z,16.02
2023-02-13T14:52:45.649Z,16.35
2023-02-13T14:55:18.048Z,16.15
2023-02-13T14:57:50.751Z,15.98
2023-02-13T15:00:56.744Z,15.98
2023-02-13T15:03:49.207Z,16.27
2023-02-13T15:06:24.186Z,15.60
2023-02-13T15:08:52.746Z,16.65
2023-02-13T15:11:39.654Z,16.67
2023-02-13T15:14:25.604Z,16.20
2023-02-13T15:17:18.225Z,16.40
2023-02-13T15:19:48.891Z,16.15
2023-02-13T15:22:39.730Z,15.82
2023-02-13T15:25:08.171Z,15.80
2023-02-13T15:27:43.353Z,15.60
2023-02-13T15:30:24.112Z,16.33
2023-02-13T15:33:02.988Z,15.63
2023-02-13T15:35:33.061Z,16.17
2023-02-13T15:38:00.676Z,15.50
2023-02-13T15:40:30.598Z,17.13
2023-02-13T15:42:58.446Z,16.35
2023-02-13T15:45:28.251Z,15.02
2023-02-13T15:47:56.285Z,16.58
2023-02-13T15:50:35.969Z,16.80
2023-02-13T15:53:09.883Z,16.25
2023-02-13T15:55:38.413Z,17.17
2023-02-13T15:58:05.578Z,17.25
2023-02-13T16:00:39.329Z,18.42
2023-02-13T16:03:14.048Z,17.10
2023-02-13T16:05:41.662Z,17.13
2023-02-13T16:08:31.859Z,17.70
2023-02-13T16:11:17.795Z,17.88
2023-02-13T16:14:03.915Z,16.48
2023-02-13T16:16:36.449Z,17.33
2023-02-13T16:19:03.474Z,17.10
2023-02-13T16:21:34.344Z,17.23
2023-02-13T16:24:06.262Z,16.45
2023-02-13T16:26:36.332Z,17.73
2023-02-13T16:29:07.743Z,16.67
2023-02-13T16:31:34.548Z,17.55
2023-02-13T16:34:14.437Z,17.90
2023-02-13T16:36:41.299Z,17.50
2023-02-13T16:39:18.641Z,18.27
2023-02-13T16:41:45.570Z,17.75
2023-02-13T16:44:23.579Z,18.23
2023-02-13T16:46:54.950Z,18.98
2023-02-13T16:49:24.569Z,18.42
2023-02-13T16:52:16.113Z,18.67
2023-02-13T16:55:06.264Z,18.80
2023-02-13T16:57:36.016Z,18.38
2023-02-13T17:00:05.302Z,17.55
2023-02-13T17:02:40.706Z,18.48
2023-02-13T17:05:07.382Z,18.00
2023-02-13T17:07:35.244Z,19.67
2023-02-13T17:10:23.117Z,19.15
2023-02-13T17:12:51.514Z,19.05
2023-02-13T17:15:21.719Z,18.48
2023-02-13T17:20:18.466Z,17.73
2023-02-13T17:22:47.574Z,18.88
2023-02-13T17:25:24.401Z,19.23
2023-02-13T17:27:53.209Z,19.38
2023-02-13T17:30:22.933Z,19.70
2023-02-13T17:32:53.850Z,20.25
2023-02-13T17:35:20.536Z,21.13
2023-02-13T17:37:47.315Z,20.58
2023-02-13T17:40:20.739Z,19.58
2023-02-13T17:42:54.296Z,20.52
2023-02-13T17:45:24.426Z,21.27
2023-02-13T17:47:51.333Z,21.05
2023-02-13T17:50:18.792Z,20.92
2023-02-13T17:52:47.630Z,21.33
2023-02-13T17:55:18.975Z,21.35
2023-02-13T17:57:45.850Z,22.10
2023-02-13T18:00:12.923Z,22.58
2023-02-13T18:02:39.716Z,22.70
2023-02-13T18:05:06.851Z,21.20
2023-02-13T18:07:33.618Z,21.60
2023-02-13T18:10:00.500Z,23.45
2023-02-13T18:12:27.703Z,24.08
2023-02-13T18:14:54.769Z,23.45
2023-02-13T18:17:21.654Z,22.85
2023-02-13T18:19:50.411Z,21.52
2023-02-13T18:22:17.129Z,23.42
2023-02-13T18:24:43.922Z,22.67
2023-02-13T18:27:13.958Z,23.38
2023-02-13T18:29:40.823Z,23.30
2023-02-13T18:32:10.848Z,24.77
2023-02-13T18:34:38.689Z,25.13
2023-02-13T18:37:07.083Z,22.83
2023-02-13T18:39:34.444Z,23.65
2023-02-13T18:42:01.581Z,24.52
2023-02-13T18:44:29.083Z,25.10
2023-02-13T18:46:56.008Z,25.15
2023-02-13T18:49:22.766Z,26.52
2023-02-13T18:51:49.755Z,25.58
2023-02-13T18:54:17.948Z,25.30
2023-02-13T18:56:45.752Z,25.50
2023-02-13T18:59:12.559Z,25.25
2023-02-13T19:01:39.424Z,25.38
2023-02-13T19:04:06.339Z,24.77
2023-02-13T19:06:33.426Z,23.55
2023-02-13T19:09:00.415Z,24.05
2023-02-13T19:11:27.786Z,25.40
2023-02-13T19:13:56.388Z,24.98
2023-02-13T19:16:23.448Z,27.23
2023-02-13T19:18:56.015Z,23.85
2023-02-13T19:21:25.125Z,25.40
2023-02-13T19:23:52.432Z,22.60
2023-02-13T19:26:24.686Z,22.90
2023-02-13T19:28:51.797Z,23.27
2023-02-13T19:31:24.005Z,23.58
2023-02-13T19:33:52.047Z,22.83
2023-02-13T19:36:25.087Z,24.88
2023-02-13T19:39:00.045Z,23.60
2023-02-13T19:41:27.220Z,24.40
2023-02-13T19:43:53.968Z,24.35
2023-02-13T19:46:26.564Z,25.05
2023-02-13T19:48:53.924Z,24.75
2023-02-13T19:51:24.381Z,24.95
2023-02-13T19:54:02.607Z,23.30
2023-02-13T19:56:30.670Z,23.73
2023-02-13T19:58:57.370Z,21.48
2023-02-13T20:01:25.933Z,22.48
2023-02-13T20:03:53.581Z,22.60
2023-02-13T20:06:30.927Z,22.42
2023-02-13T20:08:59.826Z,22.05
2023-02-13T20:11:26.575Z,22.75
2023-02-13T20:13:55.590Z,21.60
2023-02-13T20:16:23.227Z,22.15
2023-02-13T20:18:50.324Z,23.05
2023-02-13T20:21:18.416Z,22.17
2023-02-13T20:23:50.485Z,22.23
2023-02-13T20:26:17.959Z,21.23
2023-02-13T20:28:46.331Z,21.23
2023-02-13T20:31:16.203Z,22.17
2023-02-13T20:33:43.728Z,20.13
2023-02-13T20:36:20.915Z,21.42
2023-02-13T20:38:48.469Z,21.63
2023-02-13T20:41:17.716Z,22.48
2023-02-13T20:43:45.155Z,22.20
2023-02-13T20:46:13.299Z,22.48
2023-02-13T20:48:40.756Z,21.05
2023-02-13T20:51:11.439Z,20.98
2023-02-13T20:53:39.615Z,20.70
2023-02-13T20:56:13.512Z,21.50
2023-02-13T20:58:41.706Z,19.90
2023-02-13T21:01:13.029Z,22.77
2023-02-13T21:03:40.439Z,23.23
2023-02-13T21:06:07.686Z,21.35
2023-02-13T21:08:34.646Z,19.42
2023-02-13T21:11:02.711Z,22.10
2023-02-13T21:13:29.404Z,22.00
2023-02-13T21:16:04.716Z,21.58
2023-02-13T21:18:31.486Z,20.98
2023-02-13T21:20:58.496Z,21.48
2023-02-13T21:23:25.322Z,20.05
2023-02-13T21:25:52.043Z,20.85
2023-02-13T21:28:19.111Z,19.58
2023-02-13T21:30:45.900Z,19.40
2023-02-13T21:33:12.642Z,18.67
2023-02-13T21:35:39.345Z,20.63
2023-02-13T21:38:06.074Z,19.92
2023-02-13T21:40:32.765Z,19.15
2023-02-13T21:42:59.516Z,19.42
2023-02-13T21:45:26.282Z,20.05
2023-02-13T21:47:56.509Z,20.02
2023-02-13T21:50:24.207Z,20.15
2023-02-13T21:52:50.903Z,19.65
2023-02-13T21:55:17.649Z,20.55
2023-02-13T21:57:44.463Z,19.45
2023-02-13T22:00:11.958Z,20.65
2023-02-13T22:02:39.621Z,19.77
2023-02-13T22:05:06.623Z,19.05
2023-02-13T22:07:53.335Z,18.92
2023-02-13T22:10:20.105Z,18.77
2023-02-13T22:12:51.190Z,18.48
2023-02-13T22:15:18.013Z,17.85
2023-02-13T22:17:44.705Z,19.17
2023-02-13T22:20:12.862Z,19.92
2023-02-13T22:22:39.636Z,21.05
2023-02-13T22:25:06.772Z,17.50
2023-02-13T22:27:33.434Z,17.27
2023-02-13T22:30:00.198Z,17.10
2023-02-13T22:32:26.909Z,18.63
2023-02-13T22:34:53.954Z,20.73
2023-02-13T22:37:20.677Z,20.48
2023-02-13T22:39:47.610Z,16.95
2023-02-13T22:42:14.380Z,19.23
2023-02-13T22:44:41.094Z,18.73
2023-02-13T22:47:07.822Z,18.38
2023-02-13T22:49:35.891Z,19.45
2023-02-13T22:52:02.698Z,19.35
2023-02-13T22:54:29.539Z,21.70
2023-02-13T22:56:56.304Z,17.90
2023-02-13T22:59:23.188Z,20.02
2023-02-13T23:01:49.913Z,19.02
2023-02-13T23:04:16.831Z,18.63
2023-02-13T23:06:43.626Z,18.48
2023-02-13T23:09:11.962Z,21.08
2023-02-13T23:11:57.247Z,18.85
2023-02-13T23:14:24.938Z,17.38
2023-02-13T23:17:10.220Z,17.08
2023-02-13T23:19:36.942Z,16.75
2023-02-13T23:22:03.697Z,19.00
2023-02-13T23:24:31.199Z,20.67
2023-02-13T23:26:59.052Z,18.60
2023-02-13T23:29:26.590Z,17.35
2023-02-13T23:31:53.395Z,18.08
2023-02-13T23:34:20.305Z,18.73
2023-02-13T23:36:47.073Z,18.20
2023-02-13T23:39:13.869Z,17.58
2023-02-13T23:41:40.651Z,18.40
2023-02-13T23:44:07.374Z,18.65
2023-02-13T23:46:34.152Z,17.50
2023-02-13T23:49:00.928Z,17.50
2023-02-13T23:51:27.649Z,17.50
2023-02-13T23:53:56.237Z,17.33
2023-02-13T23:56:24.958Z,18.23
2023-02-13T23:58:51.696Z,17.88
